Time;durP1;ratioP1;P1;durP2;ratioP2;P2;SDS_P1;SDS_P2;PMS_P1;PMS_P2;Temp;Humidity;BMP_temperature;BMP_pressure;BME280_temperature;BME280_humidity;BME280_pressure;Samples;Min_cycle;Max_cycle;Signal;HPM_P1;HPM_P2
2022/11/13 00:01:21;;;;;;;15.02;9.38;;;5.80;99.90;;;-144.05;77.11;125687.94;5033730;28;20033;-79
2022/11/13 00:03:47;;;;;;;13.38;8.63;;;5.80;99.90;;;-144.05;76.79;125687.94;5034912;28;20044;-76
2022/11/13 00:06:16;;;;;;;15.68;9.77;;;5.80;99.90;;;-144.05;76.62;125687.94;5033547;28;20111;-77
2022/11/13 00:08:42;;;;;;;14.70;8.70;;;5.90;99.90;;;-144.05;76.49;125687.94;5034231;28;20036;-78
2022/11/13 00:11:18;;;;;;;17.60;9.63;;;6.00;99.90;;;-144.05;76.00;125687.94;5034405;28;20025;-78
2022/11/13 00:13:47;;;;;;;14.32;8.48;;;6.00;99.90;;;-144.05;75.93;125687.94;5034251;28;20025;-77
2022/11/13 00:16:18;;;;;;;12.77;7.88;;;6.00;99.90;;;-144.05;75.72;125687.94;5034331;28;20037;-78
2022/11/13 00:18:46;;;;;;;12.43;8.25;;;5.90;99.90;;;-144.05;75.61;125687.94;5033161;28;20542;-78
2022/11/13 00:21:18;;;;;;;12.98;7.65;;;5.90;99.90;;;-144.05;75.63;125687.94;5033689;28;20084;-76
2022/11/13 00:23:45;;;;;;;15.60;8.65;;;5.80;99.90;;;-144.05;75.57;125687.94;5033959;28;20052;-77
2022/11/13 00:26:26;;;;;;;12.50;8.05;;;5.80;99.90;;;-144.05;75.43;125687.94;5033040;28;20029;-78
2022/11/13 00:28:55;;;;;;;16.23;9.10;;;5.80;99.90;;;-144.05;75.15;125687.94;5033985;28;20124;-78
2022/11/13 00:31:22;;;;;;;14.20;8.13;;;5.70;99.90;;;-144.05;75.17;125687.94;5032888;28;20176;-79
2022/11/13 00:33:47;;;;;;;12.73;8.30;;;5.70;99.90;;;-144.05;75.25;125687.94;5034120;28;20035;-78
2022/11/13 00:36:19;;;;;;;14.05;8.10;;;5.70;99.90;;;-144.05;75.01;125687.94;5034296;28;20025;-78
2022/11/13 00:38:45;;;;;;;13.38;8.52;;;5.70;99.90;;;-144.05;74.78;125687.94;5034036;28;20029;-79
2022/11/13 00:41:12;;;;;;;14.38;8.63;;;5.70;99.90;;;-144.05;74.96;125687.94;5033908;28;20443;-79
2022/11/13 00:43:39;;;;;;;13.85;8.30;;;5.60;99.90;;;-144.05;74.93;125687.94;5034269;28;20034;-78
2022/11/13 00:46:06;;;;;;;17.15;9.52;;;5.60;99.90;;;-144.05;75.05;125687.94;5033614;28;20369;-76
2022/11/13 00:48:34;;;;;;;16.30;8.85;;;5.50;99.90;;;-144.05;75.26;125687.94;5032097;28;20485;-78
2022/11/13 00:51:00;;;;;;;12.65;8.40;;;5.40;99.90;;;-144.05;75.33;125687.94;5049005;28;20107;-77
2022/11/13 00:53:26;;;;;;;12.60;7.82;;;5.30;99.90;;;-144.05;75.52;125687.94;5032234;28;20592;-79
2022/11/13 00:55:52;;;;;;;16.13;8.90;;;5.30;99.90;;;-144.05;75.90;125687.94;5033202;28;20064;-76
2022/11/13 00:58:18;;;;;;;12.95;8.15;;;5.30;99.90;;;-144.05;76.20;125687.94;5033477;28;20334;-78
2022/11/13 01:00:47;;;;;;;12.73;7.85;;;5.20;99.90;;;-144.05;76.14;125687.94;5033220;28;20029;-77
2022/11/13 01:03:16;;;;;;;12.68;7.85;;;5.20;99.90;;;-144.05;76.27;125687.94;5033236;28;20025;-79
2022/11/13 01:05:45;;;;;;;17.00;8.48;;;5.20;99.90;;;-144.05;76.38;125687.94;5033199;28;20029;-78
2022/11/13 01:08:14;;;;;;;15.52;8.55;;;5.20;99.90;;;-144.05;76.64;125687.94;5032789;28;20133;-77
2022/11/13 01:10:48;;;;;;;15.75;8.45;;;5.30;99.90;;;-144.05;76.52;125687.94;5032836;28;20472;-77
2022/11/13 01:13:15;;;;;;;12.25;7.93;;;5.20;99.90;;;-144.05;76.06;125687.94;5032942;28;20040;-76
2022/11/13 01:15:44;;;;;;;18.92;8.30;;;5.20;99.90;;;-144.05;76.24;125687.94;5033048;28;20110;-77
2022/11/13 01:18:11;;;;;;;12.40;7.72;;;5.10;99.90;;;-144.05;76.18;125687.94;5032898;28;20551;-80
2022/11/13 01:20:37;;;;;;;14.52;8.30;;;5.10;99.90;;;-144.05;76.27;125687.94;5032921;28;20037;-79
2022/11/13 01:23:03;;;;;;;14.52;7.60;;;5.00;99.90;;;-144.05;76.15;125687.94;5032664;28;20032;-78
2022/11/13 01:25:30;;;;;;;10.85;7.35;;;4.90;99.90;;;-144.05;76.36;125687.94;5032471;28;20048;-77
2022/11/13 01:27:56;;;;;;;12.05;8.18;;;4.90;99.90;;;-144.05;76.21;125687.94;5032846;28;20033;-77
2022/11/13 01:30:22;;;;;;;19.70;9.52;;;4.90;99.90;;;-144.05;77.13;125687.94;5031496;28;20540;-79
2022/11/13 01:32:48;;;;;;;13.93;9.35;;;4.90;99.90;;;-144.05;76.72;125687.94;5032135;28;20135;-79
2022/11/13 01:35:14;;;;;;;16.63;9.43;;;4.80;99.90;;;-144.05;77.18;125687.94;5031584;28;20026;-80
2022/11/13 01:37:40;;;;;;;13.00;8.02;;;4.90;99.90;;;-144.05;77.14;125687.94;5047778;28;20032;-77
2022/11/13 01:40:07;;;;;;;16.67;9.45;;;4.90;99.90;;;-144.05;76.96;125687.94;5032716;28;20036;-79
2022/11/13 01:42:33;;;;;;;13.30;8.88;;;4.90;99.90;;;-144.05;76.89;125687.94;5032024;28;20038;-78
2022/11/13 01:45:03;;;;;;;12.38;8.38;;;4.80;99.90;;;-144.05;76.70;125687.94;5032574;28;20034;-77
2022/11/13 01:47:30;;;;;;;12.30;8.32;;;4.80;99.90;;;-144.05;76.84;125687.94;5031522;28;20056;-78
2022/11/13 01:50:01;;;;;;;15.25;9.13;;;4.70;99.90;;;-144.05;76.96;125687.94;5049596;28;20041;-78
2022/11/13 01:52:39;;;;;;;13.77;8.40;;;4.70;99.90;;;-144.05;76.86;125687.94;5034307;28;20528;-79
2022/11/13 01:55:18;;;;;;;12.70;8.25;;;4.70;99.90;;;-144.05;76.84;125687.94;5034830;28;20537;-77
2022/11/13 01:57:44;;;;;;;14.27;8.57;;;4.60;99.90;;;-144.05;76.89;125687.94;5032449;28;20052;-79
2022/11/13 02:00:11;;;;;;;15.15;9.50;;;4.50;99.90;;;-144.05;76.82;125687.94;5048761;28;20033;-79
2022/11/13 02:02:37;;;;;;;17.52;9.52;;;4.50;99.90;;;-144.05;77.57;125687.94;5033883;28;20108;-78
2022/11/13 02:05:07;;;;;;;13.57;9.80;;;4.50;99.90;;;-144.05;77.28;125687.94;5033891;28;20061;-78
2022/11/13 02:07:33;;;;;;;13.90;9.07;;;4.40;99.90;;;-144.05;77.37;125687.94;5034001;28;20033;-77
2022/11/13 02:10:00;;;;;;;16.38;10.50;;;4.50;99.90;;;-144.05;77.66;125687.94;5034234;28;20034;-77
2022/11/13 02:12:47;;;;;;;11.68;8.38;;;4.40;99.90;;;-144.05;77.40;125687.94;5048773;28;20033;-78
2022/11/13 02:15:14;;;;;;;14.60;9.88;;;4.30;99.90;;;-144.05;77.48;125687.94;5031739;28;20029;-78
2022/11/13 02:17:55;;;;;;;14.02;9.25;;;4.30;99.90;;;-144.05;77.90;125687.94;5031584;28;20095;-77
2022/11/13 02:21:02;;;;;;;17.42;9.20;;;4.30;99.90;;;-144.05;77.86;125687.94;5031457;28;20025;-77
2022/11/13 02:24:24;;;;;;;15.48;9.27;;;4.30;99.90;;;-144.05;77.93;125687.94;5030596;28;20041;-79
2022/11/13 02:26:55;;;;;;;14.07;8.35;;;4.30;99.90;;;-144.05;77.64;125687.94;5030049;28;20083;-79
2022/11/13 02:29:21;;;;;;;12.75;7.65;;;4.30;99.90;;;-144.05;77.63;125687.94;5029784;28;20125;-78
2022/11/13 02:31:47;;;;;;;13.35;7.30;;;4.30;99.90;;;-144.05;77.48;125687.94;5031290;28;20095;-78
2022/11/13 02:34:13;;;;;;;14.35;8.15;;;4.40;99.90;;;-144.05;77.38;125687.94;5031518;28;20017;-77
2022/11/13 02:36:39;;;;;;;13.77;7.78;;;4.40;99.90;;;-144.05;77.57;125687.94;5031402;28;20108;-78
2022/11/13 02:39:10;;;;;;;13.90;8.95;;;4.50;99.90;;;-144.05;77.86;125687.94;5046412;28;20337;-78
2022/11/13 02:41:37;;;;;;;15.75;9.95;;;4.50;99.90;;;-144.05;77.48;125687.94;5029903;28;20100;-78
2022/11/13 02:44:07;;;;;;;16.05;8.68;;;4.60;99.90;;;-144.05;77.28;125687.94;5046250;28;20033;-78
2022/11/13 02:46:34;;;;;;;15.27;8.70;;;4.60;99.90;;;-144.05;77.49;125687.94;5034804;28;20400;-78
2022/11/13 02:49:00;;;;;;;16.65;9.48;;;4.50;99.90;;;-144.05;77.42;125687.94;5033941;28;20053;-78
2022/11/13 02:51:26;;;;;;;13.70;9.02;;;4.70;99.90;;;-144.05;77.18;125687.94;5035276;28;20454;-77
2022/11/13 02:53:51;;;;;;;16.58;9.18;;;4.80;99.90;;;-144.05;76.87;125687.94;5035643;28;20060;-78
2022/11/13 02:56:17;;;;;;;14.10;8.32;;;4.90;99.90;;;-144.05;76.53;125687.94;5035645;28;20064;-78
2022/11/13 02:58:43;;;;;;;15.68;9.02;;;4.90;99.90;;;-144.05;76.52;125687.94;5034986;28;20124;-78
2022/11/13 03:01:09;;;;;;;15.05;9.00;;;4.80;99.90;;;-144.05;76.35;125687.94;5035204;28;20029;-78
2022/11/13 03:03:35;;;;;;;14.02;8.88;;;4.80;99.90;;;-144.05;75.98;125687.94;5050142;28;20528;-78
2022/11/13 03:06:01;;;;;;;14.68;8.48;;;4.70;99.90;;;-144.05;76.10;125687.94;5035194;28;20103;-78
2022/11/13 03:08:26;;;;;;;14.82;9.27;;;4.70;99.90;;;-144.05;75.87;125687.94;5034800;28;20499;-78
2022/11/13 03:10:53;;;;;;;14.85;9.05;;;4.60;99.90;;;-144.05;75.81;125687.94;5034769;28;20029;-79
2022/11/13 03:13:19;;;;;;;16.92;9.68;;;4.60;99.90;;;-144.05;76.05;125687.94;5050010;28;20110;-78
2022/11/13 03:15:45;;;;;;;13.50;7.97;;;4.50;99.90;;;-144.05;76.18;125687.94;5034771;28;20104;-78
2022/11/13 03:18:11;;;;;;;14.82;8.25;;;4.50;99.90;;;-144.05;76.00;125687.94;5033237;28;20120;-78
2022/11/13 03:20:43;;;;;;;14.40;8.40;;;4.40;99.90;;;-144.05;75.97;125687.94;5033391;28;20493;-78
2022/11/13 03:23:09;;;;;;;14.38;8.43;;;4.40;99.90;;;-144.05;76.23;125687.94;5034639;28;20029;-78
2022/11/13 03:25:35;;;;;;;14.98;8.35;;;4.30;99.90;;;-144.05;76.46;125687.94;5034651;28;20400;-77
2022/11/13 03:28:01;;;;;;;11.18;6.97;;;4.30;99.90;;;-144.05;76.44;125687.94;5034664;28;20030;-78
2022/11/13 03:30:27;;;;;;;15.25;7.57;;;4.20;99.90;;;-144.05;76.00;125687.94;5034577;28;20026;-78
2022/11/13 03:32:54;;;;;;;12.98;7.78;;;4.10;99.90;;;-144.05;76.33;125687.94;5049780;28;20553;-78
2022/11/13 03:35:24;;;;;;;14.70;8.10;;;4.00;99.90;;;-144.05;76.06;125687.94;5034437;28;20022;-78
2022/11/13 03:37:50;;;;;;;12.13;7.57;;;3.80;99.90;;;-144.05;76.24;125687.94;5034413;28;20112;-78
2022/11/13 03:40:17;;;;;;;13.55;7.80;;;3.70;99.90;;;-144.05;76.62;125687.94;5032949;28;20021;-78
2022/11/13 03:42:42;;;;;;;14.57;8.52;;;3.60;99.90;;;-144.05;76.49;125687.94;5034048;28;20038;-78
2022/11/13 03:45:09;;;;;;;15.75;8.88;;;3.60;99.90;;;-144.05;76.59;125687.94;5034096;28;20032;-78
2022/11/13 03:47:34;;;;;;;14.15;9.27;;;3.50;99.90;;;-144.05;76.59;125687.94;5049408;28;20036;-78
2022/11/13 03:50:00;;;;;;;12.10;8.90;;;3.50;99.90;;;-144.05;76.41;125687.94;5032613;28;20029;-78
2022/11/13 03:52:26;;;;;;;15.38;7.90;;;3.40;99.90;;;-144.05;77.31;125687.94;5033866;28;20025;-77
2022/11/13 03:54:52;;;;;;;14.30;9.10;;;3.30;99.90;;;-144.05;77.21;125687.94;5033928;28;20040;-79
2022/11/13 03:57:18;;;;;;;19.83;9.68;;;3.40;99.90;;;-144.05;77.41;125687.94;5034067;28;20539;-78
2022/11/13 03:59:44;;;;;;;15.40;9.25;;;3.50;99.90;;;-144.05;77.68;125687.94;5032576;28;20059;-77
2022/11/13 04:02:10;;;;;;;17.65;8.38;;;3.50;99.90;;;-144.05;77.26;125687.94;5033815;28;20489;-78
2022/11/13 04:04:36;;;;;;;15.88;8.60;;;3.50;99.90;;;-144.05;77.29;125687.94;5049041;28;20044;-79
2022/11/13 04:07:01;;;;;;;13.50;8.60;;;3.30;99.90;;;-144.05;77.08;125687.94;5034108;28;20472;-77
2022/11/13 04:09:27;;;;;;;16.17;8.88;;;3.30;99.90;;;-144.05;77.66;125687.94;5033620;28;20111;-77
2022/11/13 04:11:53;;;;;;;13.65;8.23;;;3.20;99.90;;;-144.05;77.58;125687.94;5033568;28;20029;-78
2022/11/13 04:14:19;;;;;;;14.02;8.20;;;3.10;99.90;;;-144.05;77.49;125687.94;5033530;28;20509;-78
2022/11/13 04:16:45;;;;;;;15.93;8.93;;;3.10;99.90;;;-144.05;77.51;125687.94;5033508;28;20040;-77
2022/11/13 04:19:10;;;;;;;17.92;8.68;;;3.00;99.90;;;-144.05;77.86;125687.94;5031923;28;20373;-78
2022/11/13 04:21:36;;;;;;;15.27;9.35;;;3.00;99.90;;;-144.05;77.95;125687.94;5033468;28;20028;-79
2022/11/13 04:24:02;;;;;;;14.05;8.20;;;3.00;99.90;;;-144.05;77.56;125687.94;5033127;28;20057;-78
2022/11/13 04:26:28;;;;;;;14.65;9.10;;;2.90;99.90;;;-144.05;77.63;125687.94;5048577;28;20033;-79
2022/11/13 04:28:54;;;;;;;13.10;8.27;;;2.90;99.90;;;-144.05;77.92;125687.94;5033265;28;20522;-78
2022/11/13 04:31:20;;;;;;;15.23;9.90;;;2.90;99.90;;;-144.05;78.08;125687.94;5033170;28;20157;-78
2022/11/13 04:33:45;;;;;;;16.85;8.82;;;3.00;99.90;;;-144.05;78.00;125687.94;5031666;28;20053;-79
2022/11/13 04:36:11;;;;;;;14.52;7.72;;;3.00;99.90;;;-144.05;77.96;125687.94;5048586;28;20026;-76
2022/11/13 04:38:37;;;;;;;13.70;9.18;;;2.90;99.90;;;-144.05;78.03;125687.94;5032813;28;20111;-78
2022/11/13 04:43:48;;;;;;;15.93;9.00;;;2.80;99.90;;;-144.05;77.81;125687.94;5032730;28;20076;-78
2022/11/13 04:46:13;;;;;;;14.80;9.13;;;2.80;99.90;;;-144.05;78.01;125687.94;5048160;28;20030;-76
2022/11/13 04:48:39;;;;;;;14.20;8.60;;;2.70;99.90;;;-144.05;78.02;125687.94;5032845;28;20060;-79
2022/11/13 04:51:05;;;;;;;15.90;8.88;;;2.70;99.90;;;-144.05;78.34;125687.94;5031588;28;20022;-78
2022/11/13 04:53:31;;;;;;;16.13;9.68;;;2.70;99.90;;;-144.05;78.34;125687.94;5031835;28;20571;-78
2022/11/13 04:55:57;;;;;;;14.75;8.93;;;2.70;99.90;;;-144.05;78.11;125687.94;5031717;28;20244;-78
2022/11/13 04:58:23;;;;;;;13.73;9.00;;;2.70;99.90;;;-144.05;78.28;125687.94;5032697;28;20057;-78
2022/11/13 05:00:49;;;;;;;14.52;8.55;;;2.70;99.90;;;-144.05;78.35;125687.94;5032710;28;20396;-78
2022/11/13 05:03:14;;;;;;;16.92;9.35;;;2.70;99.90;;;-144.05;78.57;125687.94;5047824;28;20064;-78
2022/11/13 05:05:40;;;;;;;15.93;8.90;;;2.60;99.90;;;-144.05;78.59;125687.94;5047818;28;20048;-77
2022/11/13 05:08:06;;;;;;;15.32;9.20;;;2.60;99.90;;;-144.05;78.90;125687.94;5030343;28;20021;-77
2022/11/13 05:10:32;;;;;;;15.13;10.20;;;2.60;99.90;;;-144.05;79.15;125687.94;5047764;28;20025;-79
2022/11/13 05:12:58;;;;;;;16.23;9.13;;;2.60;99.90;;;-144.05;78.75;125687.94;5031067;28;20025;-78
2022/11/13 05:15:23;;;;;;;14.35;9.00;;;2.70;99.90;;;-144.05;78.75;125687.94;5048237;28;20057;-80
2022/11/13 05:17:49;;;;;;;17.23;10.48;;;2.60;99.90;;;-144.05;78.80;125687.94;5034357;28;20029;-78
2022/11/13 05:20:16;;;;;;;13.85;9.15;;;2.60;99.90;;;-144.05;78.35;125687.94;5032039;28;20406;-78
2022/11/13 05:22:42;;;;;;;13.25;8.15;;;2.50;99.90;;;-144.05;78.35;125687.94;5032240;28;20029;-77
2022/11/13 05:25:08;;;;;;;12.95;8.80;;;2.50;99.90;;;-144.05;78.49;125687.94;5031991;28;20087;-79
2022/11/13 05:27:34;;;;;;;13.80;8.50;;;2.40;99.90;;;-144.05;78.52;125687.94;5032036;28;20125;-78
2022/11/13 05:29:59;;;;;;;15.80;8.63;;;2.40;99.90;;;-144.05;78.80;125687.94;5047314;28;20124;-78
2022/11/13 05:32:25;;;;;;;15.23;8.93;;;2.40;99.90;;;-144.05;78.45;125687.94;5047493;28;20144;-78
2022/11/13 05:34:51;;;;;;;15.15;9.45;;;2.40;99.90;;;-144.05;78.56;125687.94;5047352;28;20500;-77
2022/11/13 05:37:17;;;;;;;13.38;8.30;;;2.30;99.90;;;-144.05;78.60;125687.94;5047269;28;20056;-78
2022/11/13 05:39:43;;;;;;;12.38;8.15;;;2.30;99.90;;;-144.05;78.78;125687.94;5047114;28;20087;-78
2022/11/13 05:42:08;;;;;;;12.95;7.70;;;2.20;99.90;;;-144.05;79.05;125687.94;5032285;28;20030;-79
2022/11/13 05:44:34;;;;;;;12.70;7.35;;;2.30;99.90;;;-144.05;78.75;125687.94;5036635;28;20065;-81
2022/11/13 05:47:00;;;;;;;13.95;8.13;;;2.30;99.90;;;-144.05;78.83;125687.94;5037299;28;20589;-80
2022/11/13 05:49:26;;;;;;;13.05;7.43;;;2.40;99.90;;;-144.05;79.01;125687.94;5036314;28;20093;-79
2022/11/13 05:51:54;;;;;;;15.10;7.72;;;2.40;99.90;;;-144.05;78.83;125687.94;5036181;28;20029;-80
2022/11/13 05:54:20;;;;;;;13.77;7.57;;;2.40;99.90;;;-144.05;78.83;125687.94;5033853;28;20469;-77
2022/11/13 05:56:46;;;;;;;13.32;8.50;;;2.40;99.90;;;-144.05;78.77;125687.94;5033962;28;20057;-79
2022/11/13 05:59:11;;;;;;;11.98;7.53;;;2.40;99.90;;;-144.05;78.66;125687.94;5032387;28;20127;-80
2022/11/13 06:01:39;;;;;;;13.77;8.02;;;2.50;99.90;;;-144.05;78.76;125687.94;5050547;28;20083;-79
2022/11/13 06:04:08;;;;;;;12.65;8.10;;;2.50;99.90;;;-144.05;78.66;125687.94;5035169;28;20029;-78
2022/11/13 06:06:34;;;;;;;10.60;6.97;;;2.50;99.90;;;-144.05;78.96;125687.94;5035120;28;20534;-79
2022/11/13 06:09:04;;;;;;;14.85;7.35;;;2.50;99.90;;;-144.05;79.02;125687.94;5049389;28;20032;-79
2022/11/13 06:11:31;;;;;;;12.27;7.60;;;2.50;99.90;;;-144.05;78.79;125687.94;5033999;28;20094;-79
2022/11/13 06:13:59;;;;;;;12.38;7.63;;;2.50;99.90;;;-144.05;78.71;125687.94;5034058;28;20033;-79
2022/11/13 06:16:34;;;;;;;11.48;7.05;;;2.50;99.90;;;-144.05;78.75;125687.94;5033489;28;20033;-78
2022/11/13 06:19:06;;;;;;;11.60;7.85;;;2.40;99.90;;;-144.05;78.78;125687.94;5033398;28;20511;-79
2022/11/13 06:21:37;;;;;;;9.85;6.78;;;2.30;99.90;;;-144.05;78.51;125687.94;5032645;28;20087;-78
2022/11/13 06:24:04;;;;;;;12.63;7.60;;;2.30;99.90;;;-144.05;78.50;125687.94;5031450;28;20150;-79
2022/11/13 06:26:34;;;;;;;13.50;7.75;;;2.20;99.90;;;-144.05;78.47;125687.94;5030472;28;20450;-78
2022/11/13 06:29:04;;;;;;;11.07;7.82;;;2.10;99.90;;;-144.05;78.68;125687.94;5033115;28;20457;-79
2022/11/13 06:31:34;;;;;;;15.93;8.35;;;2.10;99.90;;;-144.05;78.87;125687.94;5032257;28;20078;-79
2022/11/13 06:34:02;;;;;;;11.63;7.50;;;2.00;99.90;;;-144.05;78.41;125687.94;5048590;28;20041;-79
2022/11/13 06:36:33;;;;;;;12.65;7.57;;;2.00;99.90;;;-144.05;78.71;125687.94;5033691;28;20037;-79
2022/11/13 06:39:00;;;;;;;16.88;10.07;;;2.00;99.90;;;-144.05;78.92;125687.94;5033535;28;20033;-79
2022/11/13 06:41:30;;;;;;;13.18;8.10;;;2.00;99.90;;;-144.05;78.93;125687.94;5032826;28;20543;-78
2022/11/13 06:43:59;;;;;;;14.43;9.07;;;2.00;99.90;;;-144.05;78.95;125687.94;5033148;28;20117;-79
2022/11/13 06:46:28;;;;;;;13.75;8.23;;;2.10;99.90;;;-144.05;78.89;125687.94;5032816;28;20080;-78
2022/11/13 06:48:55;;;;;;;14.05;7.97;;;2.10;99.90;;;-144.05;78.92;125687.94;5048905;28;20108;-79
2022/11/13 06:51:27;;;;;;;14.50;8.63;;;2.10;99.90;;;-144.05;78.93;125687.94;5031552;28;20033;-80
2022/11/13 06:53:53;;;;;;;13.75;7.65;;;2.20;99.90;;;-144.05;78.64;125687.94;5031015;28;20075;-77
2022/11/13 06:56:20;;;;;;;13.00;7.82;;;2.20;99.90;;;-144.05;78.82;125687.94;5031131;28;20507;-78
2022/11/13 06:58:46;;;;;;;14.25;7.93;;;2.20;99.90;;;-144.05;79.02;125687.94;5029767;28;20033;-78
2022/11/13 07:01:21;;;;;;;13.02;8.02;;;2.30;99.90;;;-144.05;79.10;125687.94;5031039;28;20033;-77
2022/11/13 07:03:47;;;;;;;12.13;6.72;;;2.40;99.90;;;-144.05;78.83;125687.94;5029642;28;20102;-77
2022/11/13 07:06:21;;;;;;;12.75;8.15;;;2.30;99.90;;;-144.05;79.20;125687.94;5031110;28;20508;-77
2022/11/13 07:08:48;;;;;;;15.40;7.95;;;2.30;99.90;;;-144.05;78.99;125687.94;5031002;28;20041;-78
2022/11/13 07:11:21;;;;;;;12.93;8.30;;;2.30;99.90;;;-144.05;79.24;125687.94;5029813;28;20026;-78
2022/11/13 07:13:48;;;;;;;13.82;8.10;;;2.40;99.90;;;-144.05;78.93;125687.94;5046402;28;20053;-77
2022/11/13 07:16:16;;;;;;;12.10;7.25;;;2.40;99.90;;;-144.05;79.02;125687.94;5031047;28;20040;-78
2022/11/13 07:18:43;;;;;;;12.77;7.75;;;2.40;99.90;;;-144.05;78.97;125687.94;5030856;28;20045;-77
2022/11/13 07:21:11;;;;;;;12.02;7.82;;;2.40;99.90;;;-144.05;79.36;125687.94;5030909;28;20477;-78
2022/11/13 07:23:44;;;;;;;13.27;7.70;;;2.60;99.90;;;-144.05;79.28;125687.94;5029829;28;20230;-78
2022/11/13 07:26:11;;;;;;;12.82;7.78;;;2.80;99.90;;;-144.05;79.39;125687.94;5031226;28;20042;-78
2022/11/13 07:28:37;;;;;;;14.45;8.30;;;3.00;99.90;;;-144.05;79.07;125687.94;5031168;28;20025;-79
2022/11/13 07:31:05;;;;;;;14.63;8.50;;;3.10;99.90;;;-144.05;78.92;125687.94;5031793;28;20137;-78
2022/11/13 07:33:31;;;;;;;15.07;8.60;;;3.30;99.90;;;-144.05;79.13;125687.94;5035240;28;20033;-78
2022/11/13 07:35:59;;;;;;;14.05;8.07;;;3.50;99.90;;;-144.05;78.80;125687.94;5034893;28;20048;-78
2022/11/13 07:38:25;;;;;;;14.07;8.63;;;3.60;99.90;;;-144.05;78.00;125687.94;5034895;28;20127;-78
2022/11/13 07:40:51;;;;;;;13.48;8.45;;;3.80;99.90;;;-144.05;78.26;125687.94;5034605;28;20120;-79
2022/11/13 07:43:17;;;;;;;17.00;9.10;;;3.90;99.90;;;-144.05;78.05;125687.94;5033673;28;20109;-77
2022/11/13 07:45:43;;;;;;;14.63;8.18;;;4.00;99.90;;;-144.05;77.66;125687.94;5034091;28;20029;-77
2022/11/13 07:48:10;;;;;;;12.68;8.88;;;4.20;99.90;;;-144.05;77.68;125687.94;5033395;28;20560;-77
2022/11/13 07:50:37;;;;;;;13.80;7.93;;;4.30;99.90;;;-144.05;77.43;125687.94;5033484;28;20034;-77
2022/11/13 07:53:07;;;;;;;16.23;9.02;;;4.50;99.90;;;-144.05;77.09;125687.94;5033727;28;20075;-79
2022/11/13 07:55:35;;;;;;;12.38;8.07;;;4.80;99.90;;;-144.05;76.47;125687.94;5033155;28;20396;-78
2022/11/13 07:58:03;;;;;;;11.52;8.48;;;5.10;99.90;;;-144.05;76.07;125687.94;5033779;28;20381;-79
2022/11/13 08:00:32;;;;;;;15.23;8.38;;;5.40;99.90;;;-144.05;75.12;125687.94;5034129;28;20051;-78
2022/11/13 08:03:10;;;;;;;13.55;8.90;;;5.70;99.90;;;-144.05;73.95;125687.94;5033157;28;20022;-77
2022/11/13 08:05:35;;;;;;;12.95;8.30;;;6.10;99.90;;;-144.05;71.81;125687.94;5033375;28;20030;-77
2022/11/13 08:08:03;;;;;;;15.80;8.77;;;6.30;99.90;;;-144.05;70.02;125687.94;5048493;28;20093;-78
2022/11/13 08:10:28;;;;;;;12.82;9.32;;;6.40;99.90;;;-144.05;69.31;125687.94;5033123;28;20464;-77
2022/11/13 08:13:06;;;;;;;15.70;8.75;;;6.60;99.90;;;-144.05;68.40;125687.94;5033065;28;20021;-79
2022/11/13 08:15:33;;;;;;;10.70;7.80;;;6.80;99.90;;;-144.05;67.56;125687.94;5032935;28;20430;-78
2022/11/13 08:18:02;;;;;;;13.63;8.77;;;7.10;99.90;;;-144.05;66.86;125687.94;5033204;28;20026;-77
2022/11/13 08:20:30;;;;;;;12.45;7.45;;;7.30;99.90;;;-144.05;65.83;125687.94;5031693;28;20026;-77
2022/11/13 08:22:59;;;;;;;12.00;7.85;;;7.50;99.90;;;-144.05;65.04;125687.94;5032903;28;20397;-76
2022/11/13 08:25:28;;;;;;;13.38;8.57;;;7.80;99.90;;;-144.05;64.25;125687.94;5031674;28;20091;-76
2022/11/13 08:27:53;;;;;;;13.98;8.70;;;8.00;99.90;;;-144.05;63.89;125687.94;5031883;28;20029;-78
2022/11/13 08:30:22;;;;;;;15.23;9.02;;;8.20;99.90;;;-144.05;62.74;125687.94;5033354;28;20033;-77
2022/11/13 08:32:49;;;;;;;12.40;8.43;;;8.20;99.90;;;-144.05;62.16;125687.94;5032628;28;20048;-78
2022/11/13 08:35:16;;;;;;;13.98;9.35;;;8.40;99.90;;;-144.05;61.43;125687.94;5031461;28;20504;-78
2022/11/13 08:37:42;;;;;;;13.52;8.88;;;8.50;99.90;;;-144.05;60.67;125687.94;5031086;28;20515;-77
2022/11/13 08:40:09;;;;;;;12.18;8.00;;;8.70;99.90;;;-144.05;59.51;125687.94;5030821;28;20136;-78
2022/11/13 08:42:35;;;;;;;11.65;8.02;;;8.90;99.90;;;-144.05;58.38;125687.94;5010334;28;1087720;-79
2022/11/13 08:45:01;;;;;;;11.35;8.00;;;9.10;99.90;;;-144.05;58.93;125687.94;5034737;28;20040;-79
2022/11/13 08:47:28;;;;;;;12.63;8.10;;;9.40;99.90;;;-144.05;57.93;125687.94;5048628;28;20124;-76
2022/11/13 08:49:55;;;;;;;12.07;7.95;;;9.60;99.90;;;-144.05;56.39;125687.94;5033633;28;20025;-77
2022/11/13 08:52:22;;;;;;;11.15;8.13;;;9.90;99.90;;;-144.05;55.63;125687.94;5033212;28;20060;-78
2022/11/13 08:54:47;;;;;;;11.85;8.65;;;10.00;99.90;;;-144.05;56.15;125687.94;5033371;28;20033;-78
2022/11/13 08:57:13;;;;;;;12.88;8.13;;;10.20;99.90;;;-144.05;55.83;125687.94;5034170;28;20079;-76
2022/11/13 08:59:39;;;;;;;11.35;8.00;;;10.30;99.90;;;-144.05;55.07;125687.94;5033310;28;20080;-77
2022/11/13 09:02:05;;;;;;;13.50;7.30;;;10.60;99.90;;;-144.05;53.33;125687.94;5033105;28;20378;-79
2022/11/13 09:04:31;;;;;;;10.48;6.55;;;10.60;99.90;;;-144.05;52.78;125687.94;5032848;28;20037;-78
2022/11/13 09:06:57;;;;;;;10.60;6.35;;;10.80;99.90;;;-144.05;52.26;125687.94;5033387;28;20113;-79
2022/11/13 09:09:23;;;;;;;12.25;6.88;;;11.00;99.90;;;-144.05;51.74;125687.94;5032915;28;20029;-79
2022/11/13 09:11:50;;;;;;;11.25;6.63;;;11.10;99.90;;;-144.05;51.32;125687.94;5031707;28;20025;-77
2022/11/13 09:14:16;;;;;;;11.55;6.30;;;11.20;99.90;;;-144.05;51.42;125687.94;5031523;28;20039;-78
2022/11/13 09:16:41;;;;;;;9.68;6.68;;;11.30;99.90;;;-144.05;51.46;125687.94;5032727;28;20105;-78
2022/11/13 09:19:07;;;;;;;11.35;6.90;;;11.50;99.90;;;-144.05;51.44;125687.94;5033036;28;20095;-81
2022/11/13 09:21:33;;;;;;;11.05;6.72;;;11.70;99.90;;;-144.05;51.27;125687.94;5033052;28;20036;-80
2022/11/13 09:23:59;;;;;;;9.40;6.55;;;11.90;99.90;;;-144.05;50.65;125687.94;5032907;28;20060;-77
2022/11/13 09:26:25;;;;;;;9.05;6.40;;;12.00;99.90;;;-144.05;49.76;125687.94;5032875;28;20049;-79
2022/11/13 09:28:50;;;;;;;11.18;6.97;;;12.10;99.90;;;-144.05;49.30;125687.94;5047947;28;20388;-76
2022/11/13 09:31:16;;;;;;;9.55;6.68;;;12.10;99.90;;;-144.05;48.95;125687.94;5032466;28;20032;-78
2022/11/13 09:33:42;;;;;;;8.23;6.55;;;12.10;99.90;;;-144.05;48.40;125687.94;5031174;28;20033;-81
2022/11/13 09:36:14;;;;;;;9.48;6.85;;;12.10;99.90;;;-144.05;47.94;125687.94;5032807;28;20275;-79
2022/11/13 09:38:41;;;;;;;11.98;6.38;;;12.10;99.90;;;-144.05;48.56;125687.94;5032452;28;20041;-81
2022/11/13 09:41:20;;;;;;;10.18;6.43;;;12.30;99.90;;;-144.05;48.35;125687.94;5033192;28;20034;-77
2022/11/13 09:44:00;;;;;;;10.02;6.60;;;12.40;99.90;;;-144.05;47.81;125687.94;5032736;28;20393;-81
2022/11/13 09:46:51;;;;;;;12.25;6.40;;;12.40;99.90;;;-144.05;47.20;125687.94;5032333;28;20025;-80
2022/11/13 09:49:36;;;;;;;12.93;6.68;;;12.60;99.90;;;-144.05;45.93;125687.94;5033560;28;20477;-77
2022/11/13 09:52:15;;;;;;;7.80;5.47;;;12.60;99.90;;;-144.05;45.73;125687.94;5049431;28;20030;-78
2022/11/13 09:54:41;;;;;;;9.48;5.90;;;12.80;99.90;;;-144.05;44.93;125687.94;5032238;28;20359;-81
2022/11/13 09:57:31;;;;;;;7.70;5.57;;;13.00;99.90;;;-144.05;43.89;125687.94;5031316;28;20033;-81
2022/11/13 10:00:19;;;;;;;6.95;4.97;;;13.30;99.90;;;-144.05;44.29;125687.94;5035096;28;20436;-79
2022/11/13 10:03:16;;;;;;;8.93;5.38;;;13.50;99.90;;;-144.05;43.74;125687.94;5051080;28;20033;-79
2022/11/13 10:06:13;;;;;;;;;;;13.70;99.90;;;-144.05;42.94;125687.94;5037540;28;20033;-83
2022/11/13 10:09:08;;;;;;;9.38;5.30;;;13.90;99.90;;;-144.05;42.93;125687.94;5035767;28;19909;-83